Portada
METAR-TAF:

METAR-TAF

Aeropuertos :

Aeropuerto Internacional de Maiquetía Simón Bolívar

Caracas, Venezuela

latitud: 10-36N, longitud: 066-59W, altitud: 43 m

Observación

El informe se hizo hace 1 hora y 2 minutos, a las 15:00 UTC
Temperatura 28°C
Humedad 70%
Presión 1013 hPa
Visibilidad 10 km o más
Escasas nubes a una altura de 1600 ft

METAR: SVMI 211500Z /////KT 9999 FEW016 28/22 Q1013

Hora: 12:02 (16:02 UTC)

Pronóstico

El informe se hizo hace 6 horas y 2 minutos, a las 10:00 UTC
Pronóstico válido del 21 a las 12 UTC al 22 a las 12 UTC
Viento 10 kt del este
Visibilidad 10 km o más
Escasas nubes a una altura de 1600 ft
Temporalmente
del 21 a las 12 UTC al 21 a las 16 UTC
Viento 12 kt del este
Visibilidad: 9000 m
Cielo nuboso a una altura de 1300 ft
llovizna

TAF: SVMI 211000Z 2112/2212 09010KT 9999 FEW016 TX34/18Z TN23/09Z TEMPO 2112/2116 09012KT 9000 DZ BKN013

Observaciones y pronósticos meteorológicos de más de 4000 aeropuertos (mensajes METAR y TAF).

Los puntos amarillos y rojos representan las estaciones disponibles.

Ponga el ratón en el punto deseado para ver el nombre de la estación.

Haga clic para ver las observaciones y los pronósticos meteorológicos.

Para cambiar el mapa : haga clic en los botones verdes con una cruz de color negro para hacer un zoom, en el botón verde con un guión para alejar o en las flechas verdes para mapas adyacentes.


METAR-TAF: